Time;durP1;ratioP1;P1;durP2;ratioP2;P2;SDS_P1;SDS_P2;PMS_P1;PMS_P2;Temp;Humidity;BMP_temperature;BMP_pressure;BME280_temperature;BME280_humidity;BME280_pressure;Samples;Min_cycle;Max_cycle;Signal;HPM_P1;HPM_P2
2021/12/26 00:01:24;;;;;;;;;54.40;42.00;;;;;-0.13;44.49;98565.56;6211032;28;97246;-66
2021/12/26 00:04:27;;;;;;;;;49.80;39.00;;;;;-0.12;44.33;98567.22;6186060;28;99049;-67
2021/12/26 00:07:30;;;;;;;;;50.40;40.00;;;;;-0.12;43.56;98572.53;6188885;28;96995;-64
2021/12/26 00:10:35;;;;;;;;;51.60;40.80;;;;;-0.14;43.76;98564.72;6189982;28;97516;-67
2021/12/26 00:13:39;;;;;;;;;48.80;38.60;;;;;-0.16;44.00;98566.72;6213190;28;98037;-67
2021/12/26 00:16:43;;;;;;;;;49.00;38.75;;;;;-0.10;43.43;98566.06;6212716;28;97534;-66
2021/12/26 00:19:46;;;;;;;;;50.00;40.00;;;;;-0.14;43.24;98562.09;6211664;28;97092;-66
2021/12/26 00:22:50;;;;;;;;;50.00;39.00;;;;;-0.15;43.59;98563.09;6209865;28;97845;-66
2021/12/26 00:25:57;;;;;;;;;53.80;42.20;;;;;-0.21;43.77;98560.25;6202742;28;96536;-65
2021/12/26 00:29:01;;;;;;;;;55.00;42.00;;;;;-0.18;43.58;98560.75;6202420;28;100027;-67
2021/12/26 00:32:07;;;;;;;;;53.40;40.80;;;;;-0.16;43.91;98565.91;6198958;28;97237;-67
2021/12/26 00:35:12;;;;;;;;;46.00;36.00;;;;;-0.12;44.80;98561.94;6212711;28;96637;-67
2021/12/26 00:38:16;;;;;;;;;48.20;38.00;;;;;-0.07;44.43;98565.75;6212140;28;96877;-67
2021/12/26 00:41:20;;;;;;;;;48.80;39.00;;;;;-0.07;43.95;98570.22;6193883;28;98355;-66
2021/12/26 00:44:24;;;;;;;;;45.60;38.00;;;;;-0.17;43.83;98559.78;6212060;28;97559;-66
2021/12/26 00:47:29;;;;;;;;;48.25;38.25;;;;;-0.13;43.98;98562.91;6212042;28;96385;-66
2021/12/26 00:50:35;;;;;;;;;50.00;39.40;;;;;-0.13;43.59;98553.16;6212757;28;97011;-67
2021/12/26 00:53:38;;;;;;;;;51.00;40.00;;;;;-0.20;43.03;98557.44;6218744;28;97557;-67
2021/12/26 00:56:43;;;;;;;;;48.75;38.50;;;;;-0.25;42.98;98562.41;6212303;28;97192;-65
2021/12/26 00:59:46;;;;;;;;;50.60;38.80;;;;;-0.36;43.24;98559.22;6212320;28;97445;-66
2021/12/26 01:02:50;;;;;;;;;48.25;38.25;;;;;-0.40;43.38;98553.41;6211119;28;97784;-65
2021/12/26 01:05:56;;;;;;;;;45.00;35.50;;;;;-0.39;43.83;98560.34;6210612;28;97151;-67
2021/12/26 01:09:00;;;;;;;;;50.20;40.20;;;;;-0.40;44.25;98558.72;6212345;28;96608;-67
2021/12/26 01:12:13;;;;;;;;;48.60;38.40;;;;;-0.41;43.92;98562.34;6231349;28;97444;-65
2021/12/26 01:15:18;;;;;;;;;49.00;38.75;;;;;-0.43;44.63;98551.91;6198297;28;96619;-66
2021/12/26 01:18:24;;;;;;;;;48.20;39.00;;;;;-0.36;44.07;98559.22;6215038;28;96528;-67
2021/12/26 01:21:29;;;;;;;;;49.60;38.00;;;;;-0.39;43.69;98560.34;6214749;28;97581;-67
2021/12/26 01:24:42;;;;;;;;;51.75;39.00;;;;;-0.75;43.35;98520.03;6210070;28;97331;-67
2021/12/26 01:27:48;;;;;;;;;47.00;38.00;;;;;-0.53;43.58;98559.16;6214460;28;96677;-67
2021/12/26 01:30:52;;;;;;;;;49.25;38.75;;;;;-0.56;43.44;98556.81;6231959;28;97144;-66
2021/12/26 01:33:59;;;;;;;;;45.50;35.75;;;;;-0.56;43.99;98551.53;6189964;28;97492;-67
2021/12/26 01:37:23;;;;;;;;;35.40;30.60;;;;;-0.46;44.54;98554.06;6184742;28;99472;-68
2021/12/26 01:40:57;;;;;;;;;44.00;33.40;;;;;-0.35;44.72;98551.13;6190044;28;96554;-68
2021/12/26 01:44:15;;;;;;;;;46.50;35.50;;;;;-0.23;44.99;98546.31;6234880;27;97095;-68
2021/12/26 01:47:24;;;;;;;;;37.60;31.80;;;;;-0.22;44.77;98546.19;6230610;28;96734;-67
2021/12/26 01:50:28;;;;;;;;;38.75;32.50;;;;;-0.15;44.83;98544.56;6215914;28;97061;-67
2021/12/26 01:53:37;;;;;;;;;38.60;32.00;;;;;-0.27;43.86;98532.59;6215036;28;97841;-67
2021/12/26 01:56:42;;;;;;;;;46.60;34.00;;;;;-0.28;43.50;98546.81;6214316;28;98374;-66
2021/12/26 01:59:48;;;;;;;;;44.60;35.00;;;;;-0.34;43.66;98544.00;6197275;28;96685;-68
2021/12/26 02:03:00;;;;;;;;;45.25;35.00;;;;;-0.40;44.07;98544.63;6214436;28;96389;-64
2021/12/26 02:06:05;;;;;;;;;48.00;37.00;;;;;-0.52;43.68;98536.97;6223087;28;96643;-65
2021/12/26 02:09:17;;;;;;;;;42.80;35.00;;;;;-0.55;43.72;98545.25;6189995;28;98320;-66
2021/12/26 02:12:20;;;;;;;;;44.20;35.60;;;;;-0.56;43.86;98548.06;6231272;28;97592;-66
2021/12/26 02:15:25;;;;;;;;;45.60;35.00;;;;;-0.54;44.39;98549.53;6231170;28;97289;-68
2021/12/26 02:18:36;;;;;;;;;45.00;36.50;;;;;-0.53;44.44;98545.06;6214760;28;97367;-67
2021/12/26 02:21:59;;;;;;;;;49.00;39.00;;;;;-0.55;44.56;98542.59;6196807;28;97185;-67
2021/12/26 02:25:24;;;;;;;;;49.00;36.80;;;;;-0.53;44.83;98537.13;6230191;28;99445;-68
2021/12/26 02:28:28;;;;;;;;;52.00;38.40;;;;;-0.52;44.89;98549.38;6230120;28;96667;-68
2021/12/26 02:31:31;;;;;;;;;45.00;34.00;;;;;-0.57;44.98;98546.38;6212520;28;99007;-67
2021/12/26 02:34:35;;;;;;;;;46.00;36.00;;;;;-0.58;44.71;98542.06;6215029;28;96800;-65
2021/12/26 02:37:39;;;;;;;;;42.20;35.60;;;;;-0.58;44.60;98555.31;6213966;28;96988;-67
2021/12/26 02:40:46;;;;;;;;;43.00;34.80;;;;;-0.60;44.52;98557.31;6213938;28;96895;-67
2021/12/26 02:43:50;;;;;;;;;48.20;36.60;;;;;-0.58;44.32;98539.44;6213678;28;97579;-68
2021/12/26 02:46:54;;;;;;;;;45.00;33.75;;;;;-0.58;44.35;98542.91;6196301;28;98334;-66
2021/12/26 02:49:59;;;;;;;;;47.00;35.00;;;;;-0.64;43.63;98534.78;6213443;28;97810;-68
2021/12/26 02:53:04;;;;;;;;;43.25;35.25;;;;;-0.66;43.89;98532.28;6212712;28;97709;-67
2021/12/26 02:56:08;;;;;;;;;47.00;36.00;;;;;-0.70;43.82;98525.66;6195418;28;99415;-67
2021/12/26 02:59:12;;;;;;;;;46.40;36.00;;;;;-0.76;43.80;98531.59;6212933;28;96543;-67
2021/12/26 03:02:15;;;;;;;;;45.00;35.00;;;;;-0.77;43.77;98544.97;6212729;28;96463;-68
2021/12/26 03:05:20;;;;;;;;;47.00;38.00;;;;;-0.77;43.79;98540.50;6213324;28;96852;-67
2021/12/26 03:08:24;;;;;;;;;45.00;35.00;;;;;-0.81;43.48;98538.34;6213300;28;96492;-66
2021/12/26 03:11:28;;;;;;;;;42.25;33.25;;;;;-0.88;43.33;98543.47;6211537;28;99207;-67
2021/12/26 03:14:32;;;;;;;;;46.60;37.60;;;;;-0.91;43.46;98538.47;6213065;28;97229;-68
2021/12/26 03:17:35;;;;;;;;;42.00;34.33;;;;;-0.96;43.38;98553.97;6212904;28;97274;-65
2021/12/26 03:20:42;;;;;;;;;43.80;35.00;;;;;-0.99;43.22;98547.19;6212334;28;96886;-69
2021/12/26 03:23:47;;;;;;;;;45.00;36.00;;;;;-0.97;43.70;98550.50;6195053;28;96845;-67
2021/12/26 03:26:51;;;;;;;;;48.00;37.00;;;;;-1.07;43.29;98541.84;6211790;28;98077;-66
2021/12/26 03:29:57;;;;;;;;;45.00;36.00;;;;;-1.13;44.07;98539.00;6246223;27;96468;-66
2021/12/26 03:33:03;;;;;;;;;45.00;36.00;;;;;-1.04;43.81;98560.06;6211660;28;97390;-66
2021/12/26 03:36:06;;;;;;;;;45.00;35.00;;;;;-1.08;43.62;98557.91;6212647;28;97324;-67
2021/12/26 03:39:11;;;;;;;;;50.20;38.00;;;;;-1.13;43.17;98558.38;6212622;28;96934;-67
2021/12/26 03:42:15;;;;;;;;;49.00;39.00;;;;;-1.16;43.36;98571.03;6212566;28;98220;-67
2021/12/26 03:45:23;;;;;;;;;50.00;39.50;;;;;-1.20;43.97;98567.06;6195685;28;96643;-66
2021/12/26 03:48:27;;;;;;;;;51.20;41.00;;;;;-1.19;43.90;98563.44;6195956;28;98179;-65
2021/12/26 03:51:33;;;;;;;;;48.00;39.00;;;;;-1.23;43.36;98570.03;6227904;27;98328;-67
2021/12/26 03:54:39;;;;;;;;;54.75;41.00;;;;;-1.28;43.97;98567.84;6211403;28;96907;-67
2021/12/26 03:57:42;;;;;;;;;54.75;41.75;;;;;-1.32;44.00;98563.84;6211591;28;97407;-65
2021/12/26 04:00:47;;;;;;;;;55.00;43.00;;;;;-1.35;44.12;98572.91;6195050;28;97024;-67
2021/12/26 04:03:53;;;;;;;;;52.00;42.00;;;;;-1.35;44.25;98574.72;6195267;28;98940;-66
2021/12/26 04:06:56;;;;;;;;;55.60;43.60;;;;;-1.39;43.94;98576.84;6211862;28;97131;-67
2021/12/26 04:10:01;;;;;;;;;56.60;44.40;;;;;-1.44;43.50;98578.28;6212746;28;96751;-65
2021/12/26 04:13:06;;;;;;;;;56.60;45.00;;;;;-1.43;43.75;98577.31;6212834;28;96951;-68
2021/12/26 04:16:09;;;;;;;;;60.60;46.20;;;;;-1.47;43.57;98589.19;6212006;28;97030;-66
2021/12/26 04:19:14;;;;;;;;;57.75;45.25;;;;;-1.71;43.86;98549.34;6211437;28;96532;-65
2021/12/26 04:22:18;;;;;;;;;61.60;46.60;;;;;-1.47;44.38;98589.19;6211444;28;96655;-67
2021/12/26 04:25:23;;;;;;;;;60.75;46.00;;;;;-1.46;44.62;98596.13;6211019;28;99686;-66
2021/12/26 04:28:29;;;;;;;;;59.00;46.00;;;;;-1.47;44.85;98597.94;6211848;28;97064;-67
2021/12/26 04:31:33;;;;;;;;;61.40;47.00;;;;;-1.46;44.88;98601.41;6210594;28;98347;-67
2021/12/26 04:34:36;;;;;;;;;61.40;46.60;;;;;-1.42;44.89;98608.06;6212381;28;96585;-67
2021/12/26 04:37:42;;;;;;;;;57.00;44.00;;;;;-1.39;45.20;98611.22;6228438;28;97591;-67
2021/12/26 04:40:51;;;;;;;;;56.00;43.20;;;;;-1.37;45.59;98609.25;6194360;28;97107;-66
2021/12/26 04:44:13;;;;;;;;;59.00;44.00;;;;;-1.35;45.00;98607.28;6211350;28;96578;-66
2021/12/26 04:47:53;;;;;;;;;54.25;41.75;;;;;-1.34;45.09;98616.06;6209605;27;98230;-65
2021/12/26 04:50:57;;;;;;;;;56.00;44.00;;;;;-1.34;45.53;98619.53;6210414;28;97090;-65
2021/12/26 04:54:01;;;;;;;;;51.50;42.50;;;;;-1.30;45.68;98620.03;6227489;27;96455;-67
2021/12/26 04:57:06;;;;;;;;;55.00;44.00;;;;;-1.21;45.49;98613.84;6210939;28;97176;-67
2021/12/26 05:00:13;;;;;;;;;55.67;41.33;;;;;-1.21;45.43;98621.78;6210513;28;97863;-65
2021/12/26 05:03:17;;;;;;;;;55.00;44.00;;;;;-1.21;45.71;98621.78;6210904;28;97824;-67
2021/12/26 05:06:20;;;;;;;;;56.00;43.75;;;;;-1.16;45.58;98611.56;6193810;28;96850;-66
2021/12/26 05:09:23;;;;;;;;;56.50;42.50;;;;;-1.13;45.88;98628.94;6211832;28;97556;-68
2021/12/26 05:12:28;;;;;;;;;55.75;43.25;;;;;-1.17;45.79;98619.66;6227448;28;96574;-65
2021/12/26 05:15:32;;;;;;;;;56.60;43.00;;;;;-1.16;45.44;98616.00;6209764;28;96710;-66
2021/12/26 05:18:36;;;;;;;;;54.40;43.00;;;;;-1.16;45.34;98618.66;6200882;28;97375;-67
2021/12/26 05:21:41;;;;;;;;;59.00;44.00;;;;;-1.22;45.32;98608.72;6193365;28;97805;-67
2021/12/26 05:24:45;;;;;;;;;55.60;44.00;;;;;-1.23;44.95;98618.47;6227251;28;96923;-67
2021/12/26 05:27:51;;;;;;;;;55.25;44.00;;;;;-1.23;45.63;98618.47;6210453;28;97421;-65
2021/12/26 05:30:55;;;;;;;;;55.60;44.00;;;;;-1.22;45.60;98616.66;6210376;28;96611;-66
2021/12/26 05:34:06;;;;;;;;;55.00;42.60;;;;;-1.23;45.38;98599.94;6227142;28;97184;-66
2021/12/26 05:37:10;;;;;;;;;53.00;42.00;;;;;-1.14;45.14;98612.25;6210337;28;97574;-67
2021/12/26 05:40:14;;;;;;;;;51.75;42.25;;;;;-1.16;45.26;98605.44;6226888;28;96804;-68
2021/12/26 05:43:19;;;;;;;;;52.60;40.00;;;;;-1.20;45.31;98607.56;6226919;28;96713;-67
2021/12/26 05:46:23;;;;;;;;;51.40;41.60;;;;;-1.25;45.27;98612.50;6210368;28;97434;-65
2021/12/26 05:49:27;;;;;;;;;54.00;42.00;;;;;-1.25;45.00;98603.72;6209860;28;97157;-65
2021/12/26 05:52:47;;;;;;;;;53.80;42.20;;;;;-1.27;45.22;98611.00;6210258;28;96569;-67
2021/12/26 05:55:52;;;;;;;;;54.00;40.00;;;;;-1.23;44.96;98615.00;6228392;27;97069;-65
2021/12/26 05:58:58;;;;;;;;;50.40;40.40;;;;;-1.29;44.73;98603.19;6229352;28;97460;-67
2021/12/26 06:02:02;;;;;;;;;52.25;41.00;;;;;-1.34;44.22;98603.66;6196784;28;97414;-67
2021/12/26 06:05:08;;;;;;;;;50.75;39.00;;;;;-1.40;44.50;98606.91;6196323;28;99950;-66
2021/12/26 06:08:13;;;;;;;;;51.40;40.00;;;;;-1.44;44.54;98604.72;6213148;28;97193;-66
2021/12/26 06:11:18;;;;;;;;;48.60;39.00;;;;;-1.48;44.38;98606.03;6214199;28;97286;-67
2021/12/26 06:14:24;;;;;;;;;50.00;41.25;;;;;-1.71;43.60;98586.34;6213615;28;97412;-67
2021/12/26 06:17:27;;;;;;;;;51.00;40.00;;;;;-1.63;43.27;98607.53;6213696;28;98075;-66
2021/12/26 06:20:49;;;;;;;;;52.75;41.75;;;;;-1.68;43.48;98615.94;6214969;28;96366;-68
2021/12/26 06:24:25;;;;;;;;;48.40;38.60;;;;;-1.67;42.93;98620.25;6201624;28;97602;-67
2021/12/26 06:27:58;;;;;;;;;52.75;41.00;;;;;-1.65;43.97;98622.72;6212768;28;99499;-67
2021/12/26 06:31:22;;;;;;;;;53.00;40.00;;;;;-1.70;43.75;98612.59;6215008;28;96288;-68
2021/12/26 06:34:43;;;;;;;;;47.80;37.40;;;;;-1.57;43.45;98625.44;6214724;28;97809;-67
2021/12/26 06:38:05;;;;;;;;;53.00;41.80;;;;;-1.57;43.16;98630.72;6213099;28;98837;-68
2021/12/26 06:41:27;;;;;;;;;47.40;38.80;;;;;-1.65;43.06;98630.63;6214953;28;97991;-65
2021/12/26 06:45:00;;;;;;;;;50.00;40.00;;;;;-1.70;42.64;98630.25;6246234;27;96959;-66
2021/12/26 06:48:25;;;;;;;;;52.80;37.60;;;;;-1.73;42.72;98636.69;6202585;28;97203;-67
2021/12/26 06:51:30;;;;;;;;;55.20;42.20;;;;;-1.77;42.69;98630.06;6230379;28;96795;-66
2021/12/26 06:54:33;;;;;;;;;55.20;43.20;;;;;-1.77;42.54;98638.81;6213565;28;97809;-65
2021/12/26 06:57:36;;;;;;;;;59.00;43.00;;;;;-1.80;43.10;98640.91;6211560;28;98397;-67
2021/12/26 07:00:40;;;;;;;;;58.67;44.00;;;;;-1.68;43.41;98649.44;6213032;28;97738;-66
2021/12/26 07:03:47;;;;;;;;;56.75;44.00;;;;;-1.62;43.73;98654.97;6212269;28;96469;-66
2021/12/26 07:06:54;;;;;;;;;59.60;45.00;;;;;-1.65;43.42;98660.53;6191440;28;97491;-65
2021/12/26 07:10:05;;;;;;;;;58.00;44.00;;;;;-1.65;43.52;98657.91;6201967;28;99436;-67
2021/12/26 07:13:08;;;;;;;;;60.40;46.00;;;;;-1.62;44.80;98649.69;6170091;28;98393;-67
2021/12/26 07:16:12;;;;;;;;;63.00;47.40;;;;;-1.58;44.83;98656.34;6187095;28;97930;-68
2021/12/26 07:19:19;;;;;;;;;61.20;47.80;;;;;-1.50;44.58;98664.31;6203717;28;97197;-68
2021/12/26 07:22:23;;;;;;;;;64.75;48.00;;;;;-1.51;44.58;98667.13;6203476;28;97546;-67
2021/12/26 07:25:27;;;;;;;;;65.25;48.25;;;;;-1.47;44.80;98665.84;6202211;28;98330;-67
2021/12/26 07:28:31;;;;;;;;;61.00;46.00;;;;;-1.39;44.56;98673.84;6203777;28;96490;-67
2021/12/26 07:31:49;;;;;;;;;63.20;47.20;;;;;-1.20;44.62;98678.16;6205477;28;98447;-68
2021/12/26 07:34:54;;;;;;;;;61.00;46.00;;;;;-0.96;44.12;98675.69;6193874;28;96898;-65
2021/12/26 07:37:59;;;;;;;;;61.00;45.80;;;;;-0.81;43.90;98673.31;6197313;28;97217;-68
2021/12/26 07:41:03;;;;;;;;;61.00;46.00;;;;;-0.49;43.57;98682.28;6191637;28;96444;-68
2021/12/26 07:44:09;;;;;;;;;56.00;44.00;;;;;-0.13;42.66;98682.97;6195736;28;97197;-65
2021/12/26 07:47:48;;;;;;;;;63.00;47.00;;;;;0.12;42.31;98689.19;6178056;28;98471;-66
2021/12/26 07:50:53;;;;;;;;;59.60;46.00;;;;;0.15;42.18;98696.81;6209752;28;97959;-64
2021/12/26 07:54:22;;;;;;;;;62.25;46.00;;;;;0.26;41.57;98688.59;6211068;28;97478;-66
2021/12/26 07:57:48;;;;;;;;;62.40;46.40;;;;;0.84;41.36;98698.28;6212039;28;97376;-68
2021/12/26 08:01:10;;;;;;;;;60.40;46.40;;;;;1.85;40.20;98696.03;6206363;28;97819;-66
2021/12/26 08:04:27;;;;;;;;;62.75;48.75;;;;;2.27;39.23;98703.66;6208200;28;100205;-68
2021/12/26 08:08:10;;;;;;;;;63.00;47.40;;;;;2.17;39.10;98702.06;6196529;28;97095;-66
2021/12/26 08:11:14;;;;;;;;;64.75;48.75;;;;;2.39;38.52;98697.81;6210171;28;96404;-67
2021/12/26 08:14:17;;;;;;;;;61.00;46.00;;;;;2.89;37.91;98699.13;6201456;28;97161;-67
2021/12/26 08:17:20;;;;;;;;;66.75;50.00;;;;;3.32;37.27;98706.44;6193253;28;97837;-68
2021/12/26 08:20:24;;;;;;;;;62.00;47.00;;;;;3.92;36.12;98703.69;6211837;28;97141;-67
2021/12/26 08:23:29;;;;;;;;;66.00;49.60;;;;;4.19;35.30;98704.06;6190293;28;99629;-66
2021/12/26 08:26:33;;;;;;;;;62.00;48.00;;;;;4.22;34.87;98707.16;6205714;28;98898;-68
2021/12/26 08:29:36;;;;;;;;;65.40;50.60;;;;;4.80;34.28;98700.88;6201072;28;96790;-68
2021/12/26 08:32:42;;;;;;;;;63.60;48.00;;;;;5.28;33.56;98705.66;6206331;28;97541;-66
2021/12/26 08:35:49;;;;;;;;;60.00;46.40;;;;;5.47;32.96;98710.34;6207671;28;97448;-66
2021/12/26 08:38:53;;;;;;;;;58.25;46.25;;;;;5.46;33.02;98716.72;6210479;28;96790;-67
2021/12/26 08:41:57;;;;;;;;;59.20;46.00;;;;;4.77;33.24;98714.59;6209212;28;97129;-66
2021/12/26 08:45:01;;;;;;;;;60.33;46.00;;;;;4.67;34.01;98716.75;6211281;28;97426;-66
2021/12/26 08:48:06;;;;;;;;;60.50;46.00;;;;;5.41;33.64;98713.78;6207322;28;96775;-64
2021/12/26 08:51:16;;;;;;;;;61.50;46.00;;;;;6.46;32.26;98709.13;6189781;28;98060;-65
2021/12/26 08:54:22;;;;;;;;;60.80;46.00;;;;;7.52;31.22;98705.66;6223768;27;97434;-64
2021/12/26 08:57:26;;;;;;;;;61.60;48.00;;;;;8.49;29.83;98703.00;6210836;28;97268;-64
2021/12/26 09:00:32;;;;;;;;;62.00;48.00;;;;;8.88;28.08;98703.84;6210193;28;98410;-66
2021/12/26 09:03:37;;;;;;;;;62.00;47.00;;;;;9.02;27.62;98703.56;6210290;28;97106;-64
2021/12/26 09:06:41;;;;;;;;;64.40;49.00;;;;;9.09;27.48;98698.13;6209542;28;96875;-65
2021/12/26 09:09:48;;;;;;;;;66.40;50.40;;;;;9.44;27.40;98704.69;6207543;28;98180;-66
2021/12/26 09:12:51;;;;;;;;;65.20;49.60;;;;;9.70;26.73;98698.28;6210093;28;96533;-65
2021/12/26 09:15:55;;;;;;;;;62.75;49.75;;;;;10.37;26.94;98707.38;6209731;28;97104;-66
2021/12/26 09:18:58;;;;;;;;;63.80;49.00;;;;;11.22;26.34;98690.06;6209890;28;97181;-64
2021/12/26 09:22:04;;;;;;;;;61.00;47.00;;;;;11.93;24.32;98693.72;6208946;28;96722;-65
2021/12/26 09:25:10;;;;;;;;;64.00;49.00;;;;;12.09;24.42;98690.31;6209161;28;96854;-64
2021/12/26 09:28:13;;;;;;;;;61.25;47.25;;;;;12.50;23.77;98684.75;6208323;28;96695;-64
2021/12/26 09:31:16;;;;;;;;;63.00;48.00;;;;;12.80;23.36;98678.28;6200027;28;97013;-65
2021/12/26 09:34:20;;;;;;;;;62.60;48.00;;;;;13.19;22.67;98680.16;6194179;28;97341;-66
2021/12/26 09:37:23;;;;;;;;;62.25;47.25;;;;;13.37;22.57;98670.97;6200221;28;96650;-65
2021/12/26 09:40:28;;;;;;;;;61.40;46.00;;;;;13.38;22.49;98673.44;6203053;28;97480;-65
2021/12/26 09:43:31;;;;;;;;;58.75;45.00;;;;;13.56;22.29;98671.56;6205164;28;97267;-65
2021/12/26 09:46:36;;;;;;;;;62.00;48.00;;;;;13.45;22.28;98668.69;6205440;28;97896;-66
2021/12/26 09:49:40;;;;;;;;;62.50;48.00;;;;;13.77;22.26;98676.25;6202931;28;96808;-65
2021/12/26 09:52:44;;;;;;;;;62.20;46.80;;;;;13.94;21.78;98670.78;6199123;28;97519;-65
2021/12/26 09:55:49;;;;;;;;;60.00;46.00;;;;;14.05;21.75;98667.16;6205472;28;98416;-65
2021/12/26 09:58:54;;;;;;;;;56.80;44.00;;;;;13.98;21.50;98678.16;6201213;28;98259;-67
2021/12/26 10:02:07;;;;;;;;;55.20;44.60;;;;;14.14;21.78;98668.38;6223710;28;99416;-66
2021/12/26 10:05:21;;;;;;;;;55.80;44.00;;;;;14.00;21.42;98667.91;6228331;28;98175;-65
2021/12/26 10:08:25;;;;;;;;;57.00;43.50;;;;;14.16;21.32;98661.66;6212249;28;97222;-65
2021/12/26 10:11:32;;;;;;;;;53.00;42.00;;;;;14.33;21.39;98662.41;6213161;28;97717;-65
2021/12/26 10:14:37;;;;;;;;;54.20;44.00;;;;;14.56;20.78;98669.50;6212971;28;96990;-66
2021/12/26 10:17:40;;;;;;;;;52.40;40.00;;;;;14.69;21.19;98665.59;6213672;28;97500;-65
2021/12/26 10:20:44;;;;;;;;;51.25;41.50;;;;;14.46;20.67;98666.69;6213232;28;96486;-65
2021/12/26 10:23:47;;;;;;;;;52.80;39.00;;;;;14.36;20.92;98669.28;6211838;28;97263;-67
2021/12/26 10:26:53;;;;;;;;;49.20;39.00;;;;;14.37;20.86;98657.34;6224285;28;96605;-66
2021/12/26 10:29:58;;;;;;;;;50.00;40.60;;;;;14.63;21.38;98659.28;6207306;28;97544;-65
2021/12/26 10:33:01;;;;;;;;;47.00;38.00;;;;;14.88;21.20;98660.66;6210478;28;96640;-64
2021/12/26 10:36:06;;;;;;;;;48.50;38.75;;;;;15.26;20.43;98659.69;6207305;28;98718;-66
2021/12/26 10:39:12;;;;;;;;;51.25;38.25;;;;;15.33;20.47;98661.13;6209805;28;96922;-67
2021/12/26 10:42:20;;;;;;;;;50.00;39.00;;;;;15.41;20.54;98648.97;6211375;28;97283;-65
2021/12/26 10:45:27;;;;;;;;;48.50;38.00;;;;;15.66;20.60;98656.53;6208477;28;97215;-65
2021/12/26 10:48:30;;;;;;;;;49.40;39.00;;;;;15.64;20.17;98656.78;6213319;28;97429;-67
2021/12/26 10:51:34;;;;;;;;;52.40;41.20;;;;;15.53;20.16;98653.19;6209341;28;97847;-64
2021/12/26 10:54:41;;;;;;;;;51.00;41.00;;;;;15.61;20.24;98654.59;6213115;28;97424;-65
2021/12/26 10:57:51;;;;;;;;;53.60;42.20;;;;;15.75;20.57;98661.22;6211005;28;97224;-67
2021/12/26 11:00:57;;;;;;;;;55.00;43.40;;;;;15.76;19.74;98662.03;6187316;28;97842;-66
2021/12/26 11:04:07;;;;;;;;;53.00;43.00;;;;;15.87;20.08;98655.63;6192742;28;98072;-65
2021/12/26 11:07:10;;;;;;;;;52.40;42.00;;;;;15.91;19.88;98656.72;6200016;28;97519;-66
2021/12/26 11:10:17;;;;;;;;;53.25;43.00;;;;;15.97;19.62;98663.84;6196475;28;96495;-65
2021/12/26 11:13:24;;;;;;;;;49.00;40.00;;;;;16.17;19.79;98655.00;6196743;28;97415;-65
2021/12/26 11:16:37;;;;;;;;;55.00;43.00;;;;;16.27;19.54;98652.31;6199927;28;97190;-66
2021/12/26 11:19:43;;;;;;;;;54.60;44.00;;;;;16.46;19.78;98654.34;6204145;28;97315;-66
2021/12/26 11:22:51;;;;;;;;;57.00;44.00;;;;;16.48;19.33;98648.59;6200250;28;97427;-66
2021/12/26 11:25:57;;;;;;;;;56.00;44.00;;;;;16.46;19.15;98646.16;6199936;28;97475;-66
2021/12/26 11:29:01;;;;;;;;;55.20;44.00;;;;;16.54;19.21;98650.25;6197700;28;97129;-65
2021/12/26 11:32:07;;;;;;;;;53.60;43.00;;;;;16.61;19.28;98642.72;6202883;28;97311;-65
2021/12/26 11:35:14;;;;;;;;;56.60;44.20;;;;;16.35;19.05;98641.75;6211384;28;97461;-66
2021/12/26 11:38:19;;;;;;;;;55.40;44.40;;;;;16.33;19.61;98632.19;6211918;28;97084;-66
2021/12/26 11:41:56;;;;;;;;;55.50;44.00;;;;;15.99;19.37;98616.25;6203101;28;97255;-66
2021/12/26 11:45:28;;;;;;;;;57.50;44.00;;;;;15.97;19.45;98637.47;6211064;28;97732;-65
2021/12/26 11:49:44;;;;;;;;;57.20;44.60;;;;;15.83;19.56;98643.63;6186473;28;98371;-66
2021/12/26 11:53:38;;;;;;;;;55.80;44.80;;;;;15.54;19.92;98640.44;6173598;28;97013;-65
2021/12/26 11:57:11;;;;;;;;;55.20;44.00;;;;;15.46;19.83;98643.56;6141721;28;98242;-65
2021/12/26 12:00:18;;;;;;;;;55.00;44.00;;;;;15.31;20.00;98641.53;6184718;28;96806;-66
2021/12/26 12:03:25;;;;;;;;;54.00;43.00;;;;;14.89;20.59;98644.13;6181797;28;97476;-66
2021/12/26 12:06:29;;;;;;;;;57.00;44.00;;;;;14.72;20.60;98648.81;6168510;28;96937;-65
2021/12/26 12:09:34;;;;;;;;;59.00;45.00;;;;;14.51;21.04;98642.34;6184442;28;97157;-66
2021/12/26 12:12:42;;;;;;;;;56.50;44.25;;;;;14.43;21.02;98642.78;6185207;28;96773;-64
2021/12/26 12:15:49;;;;;;;;;57.00;44.00;;;;;14.29;21.06;98636.88;6184474;28;97588;-65
2021/12/26 12:18:57;;;;;;;;;54.60;44.00;;;;;14.17;21.64;98635.38;6167779;28;98527;-64
2021/12/26 12:22:07;;;;;;;;;56.00;44.00;;;;;14.00;21.16;98634.56;6182800;28;97411;-66
2021/12/26 12:25:39;;;;;;;;;52.00;41.00;;;;;13.77;21.49;98632.91;6183443;28;97072;-66
2021/12/26 12:28:44;;;;;;;;;50.40;40.00;;;;;13.75;21.62;98627.72;6169677;28;99538;-64
2021/12/26 12:31:47;;;;;;;;;50.75;40.25;;;;;13.76;21.63;98637.50;6210004;28;96843;-66
2021/12/26 12:34:56;;;;;;;;;54.50;41.00;;;;;13.57;21.86;98633.41;6211376;28;96719;-66
2021/12/26 12:38:00;;;;;;;;;47.40;37.40;;;;;13.38;22.05;98638.25;6212110;28;97880;-65
2021/12/26 12:41:04;;;;;;;;;49.60;39.00;;;;;13.11;22.39;98629.09;6212445;28;96643;-65
2021/12/26 12:44:25;;;;;;;;;50.00;39.40;;;;;12.84;23.04;98626.16;6212223;28;97416;-65
2021/12/26 12:47:28;;;;;;;;;49.50;38.00;;;;;12.60;23.42;98616.50;6212059;28;96602;-65
2021/12/26 12:50:33;;;;;;;;;47.00;37.00;;;;;12.36;23.42;98621.19;6205519;28;99977;-66
2021/12/26 12:53:42;;;;;;;;;45.00;36.00;;;;;11.96;23.78;98621.16;6208636;28;98055;-65
2021/12/26 12:56:46;;;;;;;;;45.80;38.00;;;;;11.58;24.20;98618.09;6222344;28;96764;-65
2021/12/26 12:59:49;;;;;;;;;48.80;38.00;;;;;11.17;24.80;98622.50;6208355;28;98520;-65
2021/12/26 13:03:19;;;;;;;;;49.00;38.00;;;;;10.80;25.25;98624.50;6209595;28;96973;-65
2021/12/26 13:06:25;;;;;;;;;46.75;38.00;;;;;10.53;25.73;98634.00;6224506;28;96791;-66
2021/12/26 13:09:30;;;;;;;;;46.80;38.80;;;;;10.23;26.13;98641.22;6209558;28;96648;-65
2021/12/26 13:12:33;;;;;;;;;44.50;36.00;;;;;9.99;26.32;98629.44;6209735;28;97684;-65
2021/12/26 13:15:48;;;;;;;;;47.00;37.00;;;;;9.52;26.82;98628.28;6209806;28;96994;-65
2021/12/26 13:18:51;;;;;;;;;47.00;38.00;;;;;9.18;27.53;98634.97;6208297;28;97250;-65
2021/12/26 13:21:57;;;;;;;;;45.20;36.20;;;;;8.82;27.92;98629.44;6210652;28;98415;-64
2021/12/26 13:25:01;;;;;;;;;45.80;37.00;;;;;8.53;28.60;98631.69;6194370;28;97938;-64
2021/12/26 13:28:17;;;;;;;;;44.40;36.00;;;;;8.38;28.65;98635.66;6210347;28;98000;-67
2021/12/26 13:31:22;;;;;;;;;40.25;32.00;;;;;8.01;29.00;98631.88;6208667;28;97315;-64
2021/12/26 13:34:26;;;;;;;;;43.60;35.00;;;;;7.91;29.28;98639.53;6191833;28;98388;-64
2021/12/26 13:37:32;;;;;;;;;43.00;34.00;;;;;7.60;30.00;98646.41;6224362;27;97651;-65
2021/12/26 13:40:37;;;;;;;;;36.60;32.00;;;;;7.20;30.34;98645.59;6206600;28;98598;-64
2021/12/26 13:43:43;;;;;;;;;44.60;36.00;;;;;6.88;31.11;98643.72;6209115;28;98040;-64
2021/12/26 13:46:47;;;;;;;;;40.20;33.20;;;;;6.69;31.64;98647.19;6209350;28;96826;-63
2021/12/26 13:49:50;;;;;;;;;43.40;36.00;;;;;6.46;31.84;98651.03;6206454;28;98539;-62
2021/12/26 13:53:05;;;;;;;;;40.80;33.40;;;;;6.32;32.15;98651.19;6196141;28;97719;-65
2021/12/26 13:56:10;;;;;;;;;47.00;35.00;;;;;6.26;32.65;98668.03;6208074;28;97792;-67
2021/12/26 13:59:31;;;;;;;;;40.75;33.50;;;;;6.08;32.69;98669.41;6209471;28;96756;-68
2021/12/26 14:02:36;;;;;;;;;43.00;35.00;;;;;5.93;33.14;98674.06;6222897;28;99737;-64
2021/12/26 14:05:40;;;;;;;;;43.20;35.00;;;;;5.83;33.38;98673.56;6207165;28;98113;-61
2021/12/26 14:08:45;;;;;;;;;42.20;33.00;;;;;5.61;33.42;98661.28;6210432;28;97269;-64
2021/12/26 14:11:48;;;;;;;;;39.00;32.20;;;;;5.50;33.82;98675.19;6206634;28;97559;-66
2021/12/26 14:14:51;;;;;;;;;38.40;33.00;;;;;5.31;34.32;98676.69;6209733;28;97344;-63
2021/12/26 14:17:58;;;;;;;;;36.40;30.40;;;;;5.04;34.61;98678.28;6212970;28;96678;-65
2021/12/26 14:21:05;;;;;;;;;37.60;32.00;;;;;4.63;35.23;98663.91;6213827;28;96674;-64
2021/12/26 14:24:10;;;;;;;;;39.00;33.00;;;;;4.57;35.40;98673.50;6214663;28;96614;-62
2021/12/26 14:27:16;;;;;;;;;39.20;33.00;;;;;4.35;35.61;98675.28;6226638;28;97176;-66